createdAt,value
2017-12-05T00:02:18.586Z,17.90
2017-12-05T00:04:50.148Z,19.77
2017-12-05T00:07:21.538Z,21.00
2017-12-05T00:09:52.832Z,19.30
2017-12-05T00:12:24.338Z,18.57
2017-12-05T00:14:55.938Z,19.43
2017-12-05T00:17:27.995Z,20.07
2017-12-05T00:19:59.328Z,21.27
2017-12-05T00:22:30.648Z,19.47
2017-12-05T00:25:02.317Z,19.80
2017-12-05T00:27:33.644Z,21.73
2017-12-05T00:30:06.215Z,19.70
2017-12-05T00:32:37.888Z,17.40
2017-12-05T00:35:09.215Z,19.53
2017-12-05T00:37:40.761Z,18.93
2017-12-05T00:40:12.708Z,17.53
2017-12-05T00:42:44.432Z,19.00
2017-12-05T00:45:15.836Z,19.80
2017-12-05T00:47:47.239Z,19.87
2017-12-05T00:50:18.920Z,20.33
2017-12-05T00:52:50.340Z,21.57
2017-12-05T00:55:21.636Z,21.80
2017-12-05T00:57:53.253Z,20.90
2017-12-05T01:00:24.700Z,20.03
2017-12-05T01:02:56.057Z,21.70
2017-12-05T01:05:28.976Z,20.70
2017-12-05T01:08:00.315Z,20.70
2017-12-05T01:10:31.735Z,21.13
2017-12-05T01:13:03.529Z,21.50
2017-12-05T01:15:36.041Z,21.37
2017-12-05T01:18:07.408Z,19.83
2017-12-05T01:20:38.744Z,22.30
2017-12-05T01:23:10.351Z,21.77
2017-12-05T01:25:41.693Z,21.77
2017-12-05T01:28:13.995Z,23.63
2017-12-05T01:30:45.368Z,22.83
2017-12-05T01:33:16.981Z,23.63
2017-12-05T01:35:48.328Z,23.67
2017-12-05T01:38:20.388Z,21.93
2017-12-05T01:40:52.372Z,23.57
2017-12-05T01:43:24.172Z,22.93
2017-12-05T01:45:55.472Z,23.63
2017-12-05T01:48:26.911Z,24.17
2017-12-05T01:50:58.292Z,22.57
2017-12-05T01:53:30.067Z,23.40
2017-12-05T01:56:02.702Z,23.13
2017-12-05T01:58:34.151Z,25.23
2017-12-05T02:01:05.968Z,23.43
2017-12-05T02:03:37.828Z,23.70
2017-12-05T02:06:10.009Z,22.93
2017-12-05T02:08:41.514Z,23.70
2017-12-05T02:11:13.112Z,24.90
2017-12-05T02:13:44.821Z,26.00
2017-12-05T02:16:16.213Z,24.00
2017-12-05T02:18:47.663Z,25.43
2017-12-05T02:21:19.223Z,24.50
2017-12-05T02:23:50.812Z,26.03
2017-12-05T02:26:22.119Z,25.23
2017-12-05T02:28:53.470Z,26.40
2017-12-05T02:31:25.006Z,23.97
2017-12-05T02:33:57.024Z,24.60
2017-12-05T02:36:28.351Z,27.17
2017-12-05T02:38:59.719Z,26.97
2017-12-05T02:41:31.404Z,27.37
2017-12-05T02:44:04.066Z,24.80
2017-12-05T02:46:36.438Z,26.23
2017-12-05T02:49:08.023Z,24.87
2017-12-05T02:51:39.412Z,26.90
2017-12-05T02:54:11.114Z,25.30
2017-12-05T02:56:42.697Z,25.50
2017-12-05T02:59:14.286Z,24.97
2017-12-05T03:01:45.633Z,25.90
2017-12-05T03:04:18.441Z,25.17
2017-12-05T03:06:51.198Z,28.07
2017-12-05T03:09:22.545Z,26.97
2017-12-05T03:11:54.364Z,29.57
2017-12-05T03:14:25.808Z,28.63
2017-12-05T03:16:57.176Z,27.97
2017-12-05T03:19:28.545Z,30.77
2017-12-05T03:21:59.860Z,31.83
2017-12-05T03:24:31.300Z,30.13
2017-12-05T03:27:03.087Z,27.13
2017-12-05T03:29:34.522Z,26.73
2017-12-05T03:32:07.258Z,28.50
2017-12-05T03:34:39.752Z,27.87
2017-12-05T03:37:11.047Z,28.30
2017-12-05T03:39:42.382Z,27.60
2017-12-05T03:42:14.315Z,29.00
2017-12-05T03:44:45.659Z,27.97
2017-12-05T03:47:16.963Z,29.27
2017-12-05T03:49:48.677Z,29.13
2017-12-05T03:52:20.117Z,27.33
2017-12-05T03:54:51.595Z,30.07
2017-12-05T03:57:23.265Z,28.37
2017-12-05T03:59:54.610Z,29.00
2017-12-05T04:02:26.060Z,28.13
2017-12-05T04:04:57.847Z,28.37
2017-12-05T04:07:29.762Z,29.33
2017-12-05T04:10:02.103Z,27.67
2017-12-05T04:12:33.423Z,27.83
2017-12-05T04:15:05.783Z,29.10
2017-12-05T04:17:37.140Z,28.67
2017-12-05T04:20:08.626Z,28.67
2017-12-05T04:22:40.186Z,29.77
2017-12-05T04:25:11.511Z,29.10
2017-12-05T04:27:43.627Z,30.13
2017-12-05T04:30:15.557Z,29.57
2017-12-05T04:32:46.878Z,27.77
2017-12-05T04:35:18.240Z,30.00
2017-12-05T04:37:49.843Z,28.00
2017-12-05T04:40:21.429Z,26.53
2017-12-05T04:42:52.810Z,25.10
2017-12-05T04:45:24.539Z,24.40
2017-12-05T04:47:55.890Z,22.37
2017-12-05T04:50:27.514Z,20.00
2017-12-05T04:52:59.171Z,22.67
2017-12-05T04:55:30.592Z,21.20
2017-12-05T04:58:04.111Z,21.37
2017-12-05T05:00:36.522Z,22.63
2017-12-05T05:03:07.835Z,21.40
2017-12-05T05:05:40.380Z,22.07
2017-12-05T05:08:12.155Z,20.13
2017-12-05T05:10:44.289Z,20.77
2017-12-05T05:13:15.773Z,19.80
2017-12-05T05:15:47.364Z,20.90
2017-12-05T05:18:18.706Z,22.43
2017-12-05T05:20:50.007Z,21.00
2017-12-05T05:23:21.840Z,21.73
2017-12-05T05:25:53.242Z,21.50
2017-12-05T05:28:24.792Z,20.90
2017-12-05T05:30:56.303Z,22.03
2017-12-05T05:33:27.911Z,22.20
2017-12-05T05:35:59.398Z,22.10
2017-12-05T05:38:30.985Z,22.60
2017-12-05T05:41:02.774Z,22.27
2017-12-05T05:43:34.215Z,21.70
2017-12-05T05:46:07.058Z,20.53
2017-12-05T05:48:38.367Z,24.07
2017-12-05T05:51:09.671Z,22.03
2017-12-05T05:53:41.244Z,28.83
2017-12-05T05:56:13.022Z,20.70
2017-12-05T05:58:44.300Z,23.97
2017-12-05T06:01:15.638Z,22.47
2017-12-05T06:03:46.939Z,23.70
2017-12-05T06:06:18.324Z,23.50
2017-12-05T06:08:50.844Z,22.20
2017-12-05T06:11:22.143Z,23.73
2017-12-05T06:13:53.411Z,22.20
2017-12-05T06:16:25.161Z,23.43
2017-12-05T06:18:56.458Z,23.10
2017-12-05T06:21:27.877Z,23.83
2017-12-05T06:23:59.163Z,22.60
2017-12-05T06:26:32.418Z,23.77
2017-12-05T06:29:04.008Z,22.10
2017-12-05T06:31:35.633Z,25.77
2017-12-05T06:34:07.185Z,24.37
2017-12-05T06:36:38.514Z,24.20
2017-12-05T06:39:10.171Z,23.20
2017-12-05T06:41:41.491Z,23.20
2017-12-05T06:44:13.440Z,23.87
2017-12-05T06:46:45.037Z,23.97
2017-12-05T06:49:16.342Z,23.77
2017-12-05T06:51:47.836Z,22.37
2017-12-05T06:54:19.522Z,22.00
2017-12-05T06:56:51.037Z,22.70
2017-12-05T06:59:22.407Z,25.30
2017-12-05T07:01:53.905Z,21.33
2017-12-05T07:04:25.463Z,21.17
2017-12-05T07:06:57.441Z,22.67
2017-12-05T07:09:31.312Z,23.23
2017-12-05T07:12:03.940Z,23.33
2017-12-05T07:14:37.207Z,25.33
2017-12-05T07:17:08.815Z,22.17
2017-12-05T07:19:40.168Z,22.30
2017-12-05T07:22:12.681Z,23.80
2017-12-05T07:24:44.038Z,25.20
2017-12-05T07:27:15.429Z,22.20
2017-12-05T07:29:47.112Z,21.47
2017-12-05T07:32:19.287Z,23.60
2017-12-05T07:34:50.954Z,22.67
2017-12-05T07:37:22.655Z,21.80
2017-12-05T07:39:54.028Z,24.23
2017-12-05T07:42:26.183Z,24.00
2017-12-05T07:44:58.358Z,24.27
2017-12-05T07:47:29.972Z,23.30
2017-12-05T07:50:02.798Z,21.37
2017-12-05T07:52:36.704Z,21.27
2017-12-05T07:55:08.057Z,20.97
2017-12-05T07:57:40.609Z,20.37
2017-12-05T08:00:12.111Z,21.50
2017-12-05T08:02:43.735Z,20.80
2017-12-05T08:05:15.852Z,21.70
2017-12-05T08:07:47.329Z,21.20
2017-12-05T08:10:19.017Z,22.43
2017-12-05T08:12:51.289Z,20.73
2017-12-05T08:15:22.652Z,24.17
2017-12-05T08:17:54.661Z,22.87
2017-12-05T08:20:26.256Z,24.53
2017-12-05T08:22:57.655Z,23.00
2017-12-05T08:25:31.171Z,22.60
2017-12-05T08:28:04.361Z,21.33
2017-12-05T08:30:37.610Z,23.57
2017-12-05T08:33:09.738Z,22.90
2017-12-05T08:35:41.119Z,22.50
2017-12-05T08:38:13.197Z,20.20
2017-12-05T08:40:44.629Z,21.80
2017-12-05T08:43:16.099Z,17.97
2017-12-05T08:45:47.918Z,18.73
2017-12-05T08:48:19.446Z,16.60
2017-12-05T08:50:50.819Z,16.93
2017-12-05T08:53:22.454Z,15.73
2017-12-05T08:55:53.814Z,15.20
2017-12-05T08:58:25.284Z,16.93
2017-12-05T09:00:56.653Z,16.10
2017-12-05T09:03:28.815Z,15.33
2017-12-05T09:06:00.163Z,19.03
2017-12-05T09:08:31.528Z,19.13
2017-12-05T09:11:03.318Z,19.17
2017-12-05T09:13:34.735Z,20.40
2017-12-05T09:16:12.061Z,19.50
2017-12-05T09:18:43.420Z,19.17
2017-12-05T09:21:14.761Z,17.07
2017-12-05T09:23:46.523Z,16.73
2017-12-05T09:26:17.970Z,16.43
2017-12-05T09:28:49.663Z,16.30
2017-12-05T09:31:21.091Z,15.53
2017-12-05T09:33:52.787Z,16.10
2017-12-05T09:36:24.659Z,15.20
2017-12-05T09:38:56.051Z,16.13
2017-12-05T09:41:27.786Z,14.77
2017-12-05T09:43:59.501Z,15.00
2017-12-05T09:46:31.082Z,12.93
2017-12-05T09:51:57.876Z,12.87
2017-12-05T09:54:31.002Z,11.20
2017-12-05T09:57:03.086Z,13.67
2017-12-05T09:59:34.459Z,12.87
2017-12-05T10:02:06.203Z,13.40
2017-12-05T10:04:37.849Z,14.13
2017-12-05T10:07:09.265Z,11.90
2017-12-05T10:09:40.731Z,11.80
2017-12-05T10:12:13.160Z,11.77
2017-12-05T10:14:44.739Z,11.50
2017-12-05T10:17:16.375Z,11.10
2017-12-05T10:19:47.787Z,11.00
2017-12-05T10:22:19.197Z,11.27
2017-12-05T10:24:50.864Z,10.70
2017-12-05T10:27:22.250Z,10.63
2017-12-05T10:29:53.628Z,11.00
2017-12-05T10:32:25.383Z,11.17
2017-12-05T10:34:56.765Z,11.60
2017-12-05T10:37:28.903Z,12.00
2017-12-05T10:40:00.311Z,12.23
2017-12-05T10:42:31.709Z,11.30
2017-12-05T10:45:03.609Z,11.63
2017-12-05T10:47:35.563Z,12.20
2017-12-05T10:50:07.623Z,10.63
2017-12-05T10:52:40.768Z,12.30
2017-12-05T10:55:12.145Z,11.43
2017-12-05T10:57:45.215Z,10.53
2017-12-05T11:00:17.069Z,9.00
2017-12-05T11:02:48.448Z,9.57
2017-12-05T11:05:20.258Z,8.17
2017-12-05T11:07:51.667Z,10.17
2017-12-05T11:10:23.053Z,11.83
2017-12-05T11:12:54.980Z,9.97
2017-12-05T11:15:28.724Z,10.50
2017-12-05T11:18:00.518Z,11.80
2017-12-05T11:20:33.743Z,11.60
2017-12-05T11:23:05.176Z,11.43
2017-12-05T11:25:38.526Z,11.97
2017-12-05T11:28:10.268Z,10.20
2017-12-05T11:30:43.598Z,12.57
2017-12-05T11:33:15.004Z,11.53
2017-12-05T11:35:47.982Z,13.90
2017-12-05T11:38:19.748Z,13.67
2017-12-05T11:40:52.790Z,12.50
2017-12-05T11:43:24.160Z,13.10
2017-12-05T11:45:56.414Z,11.93
2017-12-05T11:48:27.997Z,11.97
2017-12-05T11:50:59.780Z,11.27
2017-12-05T11:53:32.735Z,12.03
2017-12-05T11:56:05.736Z,10.13
2017-12-05T11:58:37.401Z,11.50
2017-12-05T12:01:08.808Z,11.73
2017-12-05T12:03:40.205Z,11.60
2017-12-05T12:06:12.047Z,12.40
2017-12-05T12:08:45.081Z,11.63
2017-12-05T12:11:16.496Z,12.03
2017-12-05T12:13:49.926Z,12.83
2017-12-05T12:16:22.146Z,13.40
2017-12-05T12:18:53.769Z,13.30
2017-12-05T12:21:25.295Z,12.80
2017-12-05T12:23:56.759Z,11.90
2017-12-05T12:26:30.416Z,12.70
2017-12-05T12:29:02.181Z,14.43
2017-12-05T12:31:35.374Z,13.27
2017-12-05T12:34:06.933Z,13.93
2017-12-05T12:36:39.588Z,13.83
2017-12-05T12:39:11.256Z,14.27
2017-12-05T12:41:44.348Z,14.13
2017-12-05T12:44:16.088Z,14.03
2017-12-05T12:46:47.506Z,13.37
2017-12-05T12:49:18.958Z,14.50
2017-12-05T12:51:52.175Z,14.73
2017-12-05T12:54:23.601Z,14.23
2017-12-05T12:56:55.492Z,15.30
2017-12-05T12:59:27.852Z,15.37
2017-12-05T13:01:59.161Z,14.57
2017-12-05T13:04:32.450Z,14.03
2017-12-05T13:07:04.241Z,15.93
2017-12-05T13:09:35.883Z,15.37
2017-12-05T13:12:09.963Z,16.27
2017-12-05T13:14:42.157Z,18.27
2017-12-05T13:17:13.935Z,17.30
2017-12-05T13:19:45.259Z,16.33
2017-12-05T13:22:16.999Z,16.40
2017-12-05T13:24:48.473Z,15.63
2017-12-05T13:27:19.928Z,16.97
2017-12-05T13:29:51.555Z,17.20
2017-12-05T13:32:22.916Z,17.63
2017-12-05T13:34:54.266Z,16.27
2017-12-05T13:37:26.087Z,18.60
2017-12-05T13:39:57.481Z,16.47
2017-12-05T13:42:29.108Z,16.80
2017-12-05T13:45:00.490Z,18.20
2017-12-05T13:47:31.865Z,15.73
2017-12-05T13:50:04.476Z,15.57
2017-12-05T13:52:36.139Z,17.23
2017-12-05T13:55:07.734Z,17.70
2017-12-05T13:57:39.556Z,17.07
2017-12-05T14:00:12.102Z,16.50
2017-12-05T14:02:43.945Z,17.67
2017-12-05T14:05:15.335Z,18.57
2017-12-05T14:07:46.707Z,16.83
2017-12-05T14:10:18.641Z,16.80
2017-12-05T14:12:51.173Z,18.17
2017-12-05T14:15:24.230Z,18.67
2017-12-05T14:17:55.945Z,19.80
2017-12-05T14:20:29.363Z,19.17
2017-12-05T14:23:02.942Z,18.50
2017-12-05T14:25:36.112Z,19.60
2017-12-05T14:28:10.367Z,19.37
2017-12-05T14:30:43.104Z,21.13
2017-12-05T14:33:14.448Z,20.53
2017-12-05T14:35:46.303Z,19.70
2017-12-05T14:38:17.990Z,22.40
2017-12-05T14:40:49.511Z,21.17
2017-12-05T14:43:21.015Z,19.97
2017-12-05T14:45:52.787Z,21.90
2017-12-05T14:48:24.191Z,20.33
2017-12-05T14:50:57.255Z,21.70
2017-12-05T14:53:28.774Z,21.87
2017-12-05T14:56:00.636Z,20.40
2017-12-05T14:58:32.840Z,20.90
2017-12-05T15:01:05.015Z,21.40
2017-12-05T15:03:36.374Z,21.93
2017-12-05T15:06:14.001Z,21.10
2017-12-05T15:08:50.077Z,22.57
2017-12-05T15:11:21.990Z,22.90
2017-12-05T15:13:53.689Z,21.13
2017-12-05T15:16:25.547Z,22.00
2017-12-05T15:18:57.266Z,22.10
2017-12-05T15:21:28.936Z,23.77
2017-12-05T15:24:00.366Z,22.30
2017-12-05T15:26:32.071Z,22.07
2017-12-05T15:29:04.046Z,22.53
2017-12-05T15:31:35.566Z,22.70
2017-12-05T15:34:07.810Z,21.20
2017-12-05T15:36:39.291Z,23.20
2017-12-05T15:39:11.162Z,23.27
2017-12-05T15:41:42.551Z,24.30
2017-12-05T15:44:17.579Z,23.57
2017-12-05T15:46:49.380Z,24.30
2017-12-05T15:49:20.789Z,25.37
2017-12-05T15:51:54.073Z,23.90
2017-12-05T15:54:25.495Z,23.47
2017-12-05T15:56:56.993Z,25.73
2017-12-05T15:59:29.387Z,24.80
2017-12-05T16:02:00.952Z,23.33
2017-12-05T16:04:32.419Z,23.70
2017-12-05T16:07:05.624Z,21.83
2017-12-05T16:09:37.033Z,24.00
2017-12-05T16:12:08.904Z,23.83
2017-12-05T16:14:40.270Z,24.30
2017-12-05T16:17:11.995Z,25.60
2017-12-05T16:19:43.635Z,25.00
2017-12-05T16:22:16.092Z,24.57
2017-12-05T16:24:47.489Z,25.93
2017-12-05T16:27:19.190Z,25.63
2017-12-05T16:29:52.041Z,26.07
2017-12-05T16:32:23.615Z,24.00
2017-12-05T16:34:55.052Z,24.30
2017-12-05T16:37:26.721Z,25.50
2017-12-05T16:39:59.421Z,25.70
2017-12-05T16:42:30.986Z,26.33
2017-12-05T16:45:02.649Z,25.63
2017-12-05T16:47:34.460Z,26.10
2017-12-05T16:50:07.424Z,25.00
2017-12-05T16:52:39.073Z,23.87
2017-12-05T16:55:14.020Z,23.80
2017-12-05T16:57:49.281Z,26.30
2017-12-05T17:00:22.664Z,22.90
2017-12-05T17:02:54.307Z,26.67
2017-12-05T17:05:28.704Z,23.63
2017-12-05T17:08:00.672Z,25.27
2017-12-05T17:10:32.343Z,25.17
2017-12-05T17:13:04.635Z,26.33
2017-12-05T17:15:38.502Z,26.17
2017-12-05T17:18:10.297Z,26.07
2017-12-05T17:20:42.267Z,25.80
2017-12-05T17:23:13.672Z,25.27
2017-12-05T17:25:45.100Z,25.03
2017-12-05T17:28:18.112Z,26.03
2017-12-05T17:30:51.320Z,27.63
2017-12-05T17:33:23.043Z,26.33
2017-12-05T17:35:54.728Z,27.00
2017-12-05T17:38:27.230Z,25.97
2017-12-05T17:41:00.473Z,26.93
2017-12-05T17:43:33.806Z,27.03
2017-12-05T17:46:06.463Z,25.10
2017-12-05T17:48:38.438Z,27.33
2017-12-05T17:51:09.819Z,26.93
2017-12-05T17:53:41.483Z,26.93
2017-12-05T17:56:13.610Z,26.70
2017-12-05T17:58:48.471Z,26.90
2017-12-05T18:01:19.985Z,26.47
2017-12-05T18:03:54.103Z,26.23
2017-12-05T18:06:26.081Z,25.33
2017-12-05T18:08:58.368Z,25.77
2017-12-05T18:11:32.707Z,28.60
2017-12-05T18:14:06.068Z,24.50
2017-12-05T18:16:37.438Z,28.13
2017-12-05T18:19:09.199Z,24.40
2017-12-05T18:24:35.516Z,27.80
2017-12-05T18:27:06.952Z,26.97
2017-12-05T18:29:38.690Z,26.13
2017-12-05T18:32:10.989Z,25.47
2017-12-05T18:34:42.742Z,27.60
2017-12-05T18:37:14.814Z,26.20
2017-12-05T18:39:46.721Z,26.40
2017-12-05T18:42:19.133Z,26.73
2017-12-05T18:44:52.911Z,25.70
2017-12-05T18:47:24.787Z,25.10
2017-12-05T18:49:56.833Z,25.77
2017-12-05T18:52:28.648Z,25.17
2017-12-05T18:55:02.088Z,25.80
2017-12-05T18:57:35.320Z,26.30
2017-12-05T19:00:11.520Z,26.33
2017-12-05T19:02:44.617Z,25.30
2017-12-05T19:05:16.658Z,25.73
2017-12-05T19:10:46.044Z,24.27
2017-12-05T19:13:17.742Z,23.50
2017-12-05T19:15:50.889Z,23.50
2017-12-05T19:18:23.144Z,24.50
2017-12-05T19:20:54.885Z,25.30
2017-12-05T19:23:26.996Z,24.90
2017-12-05T19:25:59.858Z,25.60
2017-12-05T19:28:32.945Z,25.47
2017-12-05T19:31:04.950Z,24.50
2017-12-05T19:33:38.422Z,25.03
2017-12-05T19:36:10.511Z,26.10
2017-12-05T19:38:42.467Z,24.53
2017-12-05T19:41:22.549Z,25.73
2017-12-05T19:43:54.105Z,24.20
2017-12-05T19:46:25.972Z,25.17
2017-12-05T19:48:57.578Z,25.70
2017-12-05T19:51:29.888Z,25.30
2017-12-05T19:54:08.547Z,25.77
2017-12-05T19:56:51.142Z,25.53
2017-12-05T19:59:23.247Z,23.60
2017-12-05T20:01:55.090Z,25.60
2017-12-05T20:04:26.887Z,27.10
2017-12-05T20:06:58.360Z,24.80
2017-12-05T20:09:30.435Z,26.23
2017-12-05T20:12:04.230Z,25.90
2017-12-05T20:14:35.962Z,25.40
2017-12-05T20:17:07.615Z,26.70
2017-12-05T20:19:39.188Z,25.90
2017-12-05T20:22:13.091Z,27.10
2017-12-05T20:24:44.710Z,24.30
2017-12-05T20:27:16.541Z,28.00
2017-12-05T20:29:49.319Z,28.20
2017-12-05T20:32:21.283Z,27.70
2017-12-05T20:34:53.288Z,27.27
2017-12-05T20:37:24.692Z,27.07
2017-12-05T20:39:57.237Z,27.67
2017-12-05T20:42:30.003Z,27.37
2017-12-05T20:45:02.056Z,26.13
2017-12-05T20:47:34.163Z,27.33
2017-12-05T20:50:08.298Z,27.17
2017-12-05T20:52:43.907Z,27.20
2017-12-05T20:55:15.696Z,25.40
2017-12-05T20:57:49.572Z,26.80
2017-12-05T21:00:21.139Z,26.37
2017-12-05T21:02:52.706Z,26.10
2017-12-05T21:05:24.459Z,26.87
2017-12-05T21:07:55.845Z,26.20
2017-12-05T21:10:27.865Z,29.50
2017-12-05T21:12:59.424Z,26.07
2017-12-05T21:15:30.747Z,26.33
2017-12-05T21:18:04.486Z,26.67
2017-12-05T21:23:25.122Z,27.50
2017-12-05T21:26:00.090Z,28.00
2017-12-05T21:28:33.084Z,26.83
2017-12-05T21:31:05.248Z,27.97
2017-12-05T21:33:56.891Z,28.53
2017-12-05T21:36:30.356Z,26.07
2017-12-05T21:39:02.299Z,27.17
2017-12-05T21:41:36.782Z,29.00
2017-12-05T21:44:11.512Z,30.00
2017-12-05T21:46:43.144Z,28.40
2017-12-05T21:49:14.821Z,28.90
2017-12-05T21:51:47.658Z,27.60
2017-12-05T21:54:19.680Z,29.40
2017-12-05T21:56:51.962Z,28.47
2017-12-05T21:59:54.011Z,31.20
2017-12-05T22:02:26.136Z,29.43
2017-12-05T22:04:57.767Z,30.83
2017-12-05T22:07:29.339Z,28.60
2017-12-05T22:10:01.412Z,32.20
2017-12-05T22:12:32.839Z,26.90
2017-12-05T22:15:05.191Z,29.30
2017-12-05T22:17:36.869Z,30.00
2017-12-05T22:20:08.677Z,29.63
2017-12-05T22:22:40.579Z,31.93
2017-12-05T22:25:12.758Z,30.07
2017-12-05T22:27:44.296Z,28.40
2017-12-05T22:30:16.073Z,27.60
2017-12-05T22:32:47.849Z,28.53
2017-12-05T22:35:22.923Z,28.90
2017-12-05T22:37:54.282Z,28.27
2017-12-05T22:40:25.978Z,28.70
2017-12-05T22:42:57.470Z,29.60
2017-12-05T22:45:29.406Z,29.30
2017-12-05T22:48:00.853Z,30.20
2017-12-05T22:50:32.325Z,30.17
2017-12-05T22:53:04.343Z,29.47
2017-12-05T22:55:36.071Z,28.50
2017-12-05T22:58:09.324Z,29.40
2017-12-05T23:00:40.750Z,29.53
2017-12-05T23:03:12.072Z,28.70
2017-12-05T23:05:44.666Z,28.53
2017-12-05T23:08:16.877Z,29.00
2017-12-05T23:10:48.237Z,30.03
2017-12-05T23:13:19.567Z,30.73
2017-12-05T23:15:51.222Z,29.93
2017-12-05T23:18:22.601Z,29.60
2017-12-05T23:20:53.928Z,29.23
2017-12-05T23:23:25.518Z,29.83
2017-12-05T23:25:56.829Z,30.80
2017-12-05T23:28:29.341Z,29.20
2017-12-05T23:31:01.078Z,28.60
2017-12-05T23:33:32.379Z,26.53
2017-12-05T23:36:05.226Z,31.40
2017-12-05T23:38:36.962Z,28.37
2017-12-05T23:41:08.583Z,29.20
2017-12-05T23:43:39.889Z,27.00
2017-12-05T23:46:14.257Z,30.80
2017-12-05T23:48:45.612Z,28.27
2017-12-05T23:51:17.202Z,28.07
2017-12-05T23:53:48.513Z,30.03
2017-12-05T23:56:21.573Z,30.70
2017-12-05T23:58:53.189Z,28.80
